createdAt,value
2023-11-18T00:00:13.469Z,102271.03
2023-11-18T00:02:44.192Z,102264.75
2023-11-18T00:05:14.943Z,102269.28
2023-11-18T00:07:43.137Z,102265.78
2023-11-18T00:10:12.091Z,102264.94
2023-11-18T00:12:42.868Z,102264.13
2023-11-18T00:15:13.197Z,102261.50
2023-11-18T00:17:41.474Z,102256.13
2023-11-18T00:20:13.577Z,102260.63
2023-11-18T00:22:43.610Z,102247.13
2023-11-18T00:25:12.124Z,102244.53
2023-11-18T00:27:40.129Z,102252.78
2023-11-18T00:30:11.971Z,102251.97
2023-11-18T00:32:40.160Z,102248.47
2023-11-18T00:35:09.685Z,102249.41
2023-11-18T00:37:37.575Z,102248.72
2023-11-18T00:40:09.116Z,102256.00
2023-11-18T00:42:37.220Z,102260.50
2023-11-18T00:45:06.119Z,102253.41
2023-11-18T00:47:34.134Z,102254.41
2023-11-18T00:50:03.352Z,102246.47
2023-11-18T00:52:31.314Z,102255.44
2023-11-18T00:54:59.220Z,102266.22
2023-11-18T00:57:28.522Z,102265.34
2023-11-18T00:59:58.281Z,102265.34
2023-11-18T01:02:26.262Z,102262.66
2023-11-18T01:04:54.197Z,102263.59
2023-11-18T01:07:22.002Z,102269.94
2023-11-18T01:09:51.158Z,102269.94
2023-11-18T01:12:19.008Z,102270.88
2023-11-18T01:14:48.191Z,102278.91
2023-11-18T01:17:16.371Z,102277.97
2023-11-18T01:19:45.061Z,102276.22
2023-11-18T01:22:12.965Z,102270.81
2023-11-18T01:24:40.951Z,102268.13
2023-11-18T01:27:10.854Z,102269.06
2023-11-18T01:29:39.933Z,102265.56
2023-11-18T01:32:10.922Z,102268.25
2023-11-18T01:34:40.312Z,102273.66
2023-11-18T01:37:08.666Z,102276.22
2023-11-18T01:39:37.002Z,102280.72
2023-11-18T01:42:05.258Z,102287.03
2023-11-18T01:44:34.986Z,102283.50
2023-11-18T01:47:07.073Z,102267.22
2023-11-18T01:49:41.054Z,102273.53
2023-11-18T01:52:09.867Z,102276.13
2023-11-18T01:54:40.410Z,102288.66
2023-11-18T01:57:10.589Z,102288.66
2023-11-18T01:59:39.468Z,102292.22
2023-11-18T02:02:07.504Z,102285.03
2023-11-18T02:04:38.094Z,102280.50
2023-11-18T02:07:10.288Z,102281.34
2023-11-18T02:09:38.745Z,102282.25
2023-11-18T02:12:18.368Z,102281.34
2023-11-18T02:14:47.228Z,102284.06
2023-11-18T02:17:19.369Z,102282.25
2023-11-18T02:19:49.233Z,102276.03
2023-11-18T02:22:17.645Z,102275.09
2023-11-18T02:24:45.439Z,102278.66
2023-11-18T02:27:15.243Z,102285.81
2023-11-18T02:29:46.406Z,102281.31
2023-11-18T02:32:24.322Z,102266.06
2023-11-18T02:34:59.608Z,102271.47
2023-11-18T02:37:28.267Z,102258.00
2023-11-18T02:40:09.379Z,102248.97
2023-11-18T02:42:40.362Z,102240.88
2023-11-18T02:45:13.487Z,102241.72
2023-11-18T02:47:41.517Z,102238.09
2023-11-18T02:50:12.014Z,102242.63
2023-11-18T02:52:40.052Z,102237.22
2023-11-18T02:55:09.047Z,102244.34
2023-11-18T02:57:38.665Z,102244.28
2023-11-18T03:00:13.023Z,102230.81
2023-11-18T03:02:41.420Z,102231.66
2023-11-18T03:05:12.810Z,102235.25
2023-11-18T03:07:40.810Z,102237.16
2023-11-18T03:10:12.507Z,102234.53
2023-11-18T03:12:41.922Z,102236.13
2023-11-18T03:15:12.862Z,102224.38
2023-11-18T03:17:40.970Z,102229.78
2023-11-18T03:20:10.826Z,102237.06
2023-11-18T03:22:38.766Z,102218.19
2023-11-18T03:25:08.843Z,102221.78
2023-11-18T03:27:36.667Z,102211.84
2023-11-18T03:30:07.846Z,102208.28
2023-11-18T03:32:36.305Z,102201.16
2023-11-18T03:35:05.591Z,102188.63
2023-11-18T03:37:33.487Z,102169.75
2023-11-18T03:40:01.323Z,102179.63
2023-11-18T03:42:30.228Z,102172.59
2023-11-18T03:45:00.891Z,102171.63
2023-11-18T03:47:31.430Z,102159.19
2023-11-18T03:49:59.640Z,102159.19
2023-11-18T03:52:28.773Z,102161.03
2023-11-18T03:54:57.193Z,102159.09
2023-11-18T03:57:25.566Z,102155.56
2023-11-18T03:59:53.397Z,102151.91
2023-11-18T04:02:21.305Z,102148.28
2023-11-18T04:04:51.002Z,102141.91
2023-11-18T04:07:18.870Z,102141.13
2023-11-18T04:09:46.667Z,102145.50
2023-11-18T04:12:16.097Z,102132.09
2023-11-18T04:14:43.925Z,102132.88
2023-11-18T04:17:10.937Z,102127.44
2023-11-18T04:19:40.242Z,102129.22
2023-11-18T04:22:10.615Z,102122.09
2023-11-18T04:24:38.460Z,102108.59
2023-11-18T04:27:06.323Z,102105.91
2023-11-18T04:29:34.240Z,102113.94
2023-11-18T04:32:02.903Z,102099.75
2023-11-18T04:34:30.820Z,102101.41
2023-11-18T04:36:58.674Z,102107.84
2023-11-18T04:39:29.365Z,102098.84
2023-11-18T04:41:57.704Z,102108.78
2023-11-18T04:44:26.157Z,102104.25
2023-11-18T04:46:53.989Z,102103.41
2023-11-18T04:49:21.945Z,102093.47
2023-11-18T04:51:49.867Z,102103.22
2023-11-18T04:54:17.699Z,102095.13
2023-11-18T04:56:47.286Z,102087.94
2023-11-18T04:59:15.106Z,102084.28
2023-11-18T05:01:43.233Z,102078.00
2023-11-18T05:04:12.077Z,102062.78
2023-11-18T05:06:39.962Z,102061.94
2023-11-18T05:09:08.865Z,102061.94
2023-11-18T05:11:37.023Z,102064.53
2023-11-18T05:14:08.212Z,102063.59
2023-11-18T05:16:36.260Z,102054.56
2023-11-18T05:19:04.200Z,102050.00
2023-11-18T05:21:31.980Z,102046.47
2023-11-18T05:23:59.778Z,102040.97
2023-11-18T05:26:28.012Z,102045.34
2023-11-18T05:28:56.010Z,102040.13
2023-11-18T05:31:25.308Z,102049.88
2023-11-18T05:33:59.327Z,102040.88
2023-11-18T05:36:29.250Z,102028.31
2023-11-18T05:38:57.281Z,102033.75
2023-11-18T05:41:28.926Z,102018.47
2023-11-18T05:43:58.758Z,102022.00
2023-11-18T05:46:31.234Z,102023.84
2023-11-18T05:49:01.152Z,102027.50
2023-11-18T05:51:30.389Z,102026.56
2023-11-18T05:54:00.748Z,102022.97
2023-11-18T05:56:28.580Z,102017.56
2023-11-18T05:58:56.794Z,102002.28
2023-11-18T06:01:25.372Z,101999.59
2023-11-18T06:03:54.922Z,102016.72
2023-11-18T06:06:24.784Z,102017.56
2023-11-18T06:08:54.453Z,102015.69
2023-11-18T06:11:24.413Z,102021.06
2023-11-18T06:13:54.028Z,102016.56
2023-11-18T06:16:23.251Z,102005.78
2023-11-18T06:18:52.743Z,101991.31
2023-11-18T06:21:25.809Z,101985.06
2023-11-18T06:23:56.112Z,101985.06
2023-11-18T06:26:25.646Z,101987.88
2023-11-18T06:28:53.658Z,101993.25
2023-11-18T06:31:21.751Z,101985.16
2023-11-18T06:33:50.477Z,101991.41
2023-11-18T06:36:24.615Z,101982.28
2023-11-18T06:38:53.665Z,101986.81
2023-11-18T06:41:24.399Z,101976.13
2023-11-18T06:44:02.147Z,101981.34
2023-11-18T06:46:35.002Z,101975.16
2023-11-18T06:49:05.262Z,101972.44
2023-11-18T06:51:38.895Z,101969.69
2023-11-18T06:54:10.458Z,101980.38
2023-11-18T06:56:40.261Z,101973.16
2023-11-18T06:59:09.108Z,101974.91
2023-11-18T07:01:37.567Z,101980.28
2023-11-18T07:04:09.841Z,101979.34
2023-11-18T07:06:40.258Z,101979.34
2023-11-18T07:09:14.384Z,101977.50
2023-11-18T07:11:43.106Z,101969.41
2023-11-18T07:14:11.380Z,101986.28
2023-11-18T07:16:40.647Z,101981.00
2023-11-18T07:19:08.790Z,101986.28
2023-11-18T07:21:36.977Z,101989.97
2023-11-18T07:24:07.858Z,101998.06
2023-11-18T07:26:35.687Z,102001.53
2023-11-18T07:29:03.591Z,101999.63
2023-11-18T07:31:31.454Z,102001.38
2023-11-18T07:33:59.285Z,102001.38
2023-11-18T07:36:27.113Z,102006.69
2023-11-18T07:38:56.344Z,102003.88
2023-11-18T07:41:30.964Z,102000.25
2023-11-18T07:44:01.789Z,102003.81
2023-11-18T07:46:32.144Z,101990.34
2023-11-18T07:49:02.783Z,101992.00
2023-11-18T07:51:30.795Z,101979.28
2023-11-18T07:53:59.746Z,101979.47
2023-11-18T07:56:30.023Z,101980.25
2023-11-18T07:58:59.831Z,101978.50
2023-11-18T08:01:28.420Z,101973.88
2023-11-18T08:03:57.587Z,101972.06
2023-11-18T08:06:27.776Z,101964.84
2023-11-18T08:08:58.881Z,101964.84
2023-11-18T08:11:28.156Z,101965.72
2023-11-18T08:13:56.029Z,101964.84
2023-11-18T08:16:23.966Z,101961.19
2023-11-18T08:18:51.808Z,101961.09
2023-11-18T08:21:19.605Z,101958.34
2023-11-18T08:23:47.463Z,101960.06
2023-11-18T08:26:15.370Z,101943.88
2023-11-18T08:28:44.588Z,101945.38
2023-11-18T08:31:16.904Z,101936.41
2023-11-18T08:33:47.685Z,101938.22
2023-11-18T08:36:15.610Z,101931.97
2023-11-18T08:38:45.362Z,101938.06
2023-11-18T08:41:13.458Z,101935.25
2023-11-18T08:43:42.218Z,101929.88
2023-11-18T08:46:11.601Z,101932.41
2023-11-18T08:48:39.844Z,101919.78
2023-11-18T08:51:10.636Z,101909.84
2023-11-18T08:53:42.425Z,101891.84
2023-11-18T08:56:14.872Z,101902.44
2023-11-18T08:58:46.045Z,101890.91
2023-11-18T09:01:16.210Z,101878.16
2023-11-18T09:03:53.953Z,101875.47
2023-11-18T09:06:27.153Z,101875.44
2023-11-18T09:08:59.419Z,101871.84
2023-11-18T09:11:33.620Z,101865.22
2023-11-18T09:14:05.125Z,101849.03
2023-11-18T09:16:39.622Z,101850.78
2023-11-18T09:19:07.532Z,101828.22
2023-11-18T09:21:37.531Z,101830.91
2023-11-18T09:24:08.847Z,101815.41
2023-11-18T09:26:36.853Z,101803.78
2023-11-18T09:29:04.786Z,101801.75
2023-11-18T09:31:34.779Z,101805.31
2023-11-18T09:34:05.237Z,101805.13
2023-11-18T09:36:34.797Z,101808.63
2023-11-18T09:39:04.415Z,101803.97
2023-11-18T09:41:34.629Z,101808.31
2023-11-18T09:44:03.711Z,101808.25
2023-11-18T09:46:34.529Z,101800.06
2023-11-18T09:49:17.014Z,101799.78
2023-11-18T09:51:48.121Z,101797.75
2023-11-18T09:54:23.477Z,101794.06
2023-11-18T09:56:58.582Z,101801.16
2023-11-18T09:59:36.079Z,101795.38
2023-11-18T10:02:06.291Z,101788.13
2023-11-18T10:04:38.655Z,101762.88
2023-11-18T10:07:08.259Z,101772.59
2023-11-18T10:09:38.653Z,101770.69
2023-11-18T10:12:07.557Z,101794.03
2023-11-18T10:14:36.097Z,101787.56
2023-11-18T10:17:07.905Z,101781.28
2023-11-18T10:19:53.756Z,101786.50
2023-11-18T10:22:25.374Z,101783.59
2023-11-18T10:24:55.692Z,101775.31
2023-11-18T10:27:27.353Z,101768.28
2023-11-18T10:29:58.171Z,101762.00
2023-11-18T10:32:29.006Z,101760.06
2023-11-18T10:35:00.038Z,101741.97
2023-11-18T10:37:32.483Z,101731.91
2023-11-18T10:40:06.773Z,101730.09
2023-11-18T10:42:34.822Z,101726.31
2023-11-18T10:45:04.470Z,101730.75
2023-11-18T10:47:36.661Z,101739.53
2023-11-18T10:50:11.219Z,101736.84
2023-11-18T10:52:42.526Z,101731.22
2023-11-18T10:55:13.661Z,101727.66
2023-11-18T10:57:43.696Z,101719.28
2023-11-18T11:00:16.043Z,101698.63
2023-11-18T11:02:44.813Z,101681.34
2023-11-18T11:05:20.978Z,101656.06
2023-11-18T11:07:51.381Z,101627.22
2023-11-18T11:10:26.248Z,101639.88
2023-11-18T11:12:58.538Z,101608.31
2023-11-18T11:15:42.046Z,101594.59
2023-11-18T11:18:24.610Z,101597.97
2023-11-18T11:21:05.343Z,101581.53
2023-11-18T11:23:45.260Z,101584.91
2023-11-18T11:26:24.113Z,101571.50
2023-11-18T11:28:58.371Z,101585.75
2023-11-18T11:31:34.457Z,101571.22
2023-11-18T11:34:08.375Z,101557.47
2023-11-18T11:36:42.750Z,101541.47
2023-11-18T11:39:18.188Z,101524.94
2023-11-18T11:41:48.896Z,101514.22
2023-11-18T11:44:17.070Z,101498.88
2023-11-18T11:46:45.569Z,101480.72
2023-11-18T11:49:21.902Z,101456.41
2023-11-18T11:51:56.794Z,101458.16
2023-11-18T11:54:30.373Z,101441.69
2023-11-18T11:57:01.999Z,101425.28
2023-11-18T11:59:57.367Z,101435.97
2023-11-18T12:02:30.562Z,101422.38
2023-11-18T12:05:00.357Z,101436.84
2023-11-18T12:07:30.380Z,101434.81
2023-11-18T12:09:58.831Z,101431.09
2023-11-18T12:12:28.236Z,101421.38
2023-11-18T12:14:58.801Z,101415.78
2023-11-18T12:17:33.141Z,101412.09
2023-11-18T12:20:06.887Z,101418.47
2023-11-18T12:23:15.246Z,101411.13
2023-11-18T12:25:43.659Z,101399.31
2023-11-18T12:28:12.279Z,101399.22
2023-11-18T12:30:45.021Z,101395.44
2023-11-18T12:33:19.996Z,101399.22
2023-11-18T12:36:36.366Z,101395.31
2023-11-18T12:39:43.462Z,101373.59
2023-11-18T12:42:36.081Z,101352.84
2023-11-18T12:45:27.847Z,101350.78
2023-11-18T12:47:59.354Z,101330.00
2023-11-18T12:50:29.971Z,101325.47
2023-11-18T12:52:58.661Z,101322.78
2023-11-18T12:55:27.742Z,101322.78
2023-11-18T12:57:56.943Z,101338.88
2023-11-18T13:00:28.770Z,101354.34
2023-11-18T13:02:59.263Z,101347.09
2023-11-18T13:05:30.979Z,101319.06
2023-11-18T13:08:00.506Z,101294.66
2023-11-18T13:10:28.594Z,101291.94
2023-11-18T13:12:59.138Z,101284.81
2023-11-18T13:15:27.552Z,101269.44
2023-11-18T13:18:03.831Z,101253.97
2023-11-18T13:20:34.827Z,101252.25
2023-11-18T13:23:09.662Z,101249.41
2023-11-18T13:25:40.236Z,101241.09
2023-11-18T13:28:11.961Z,101235.81
2023-11-18T13:30:41.238Z,101225.72
2023-11-18T13:33:09.902Z,101235.56
2023-11-18T13:35:38.248Z,101232.84
2023-11-18T13:38:06.932Z,101218.38
2023-11-18T13:40:45.040Z,101214.56
2023-11-18T13:43:14.469Z,101206.88
2023-11-18T13:45:43.868Z,101209.66
2023-11-18T13:48:14.786Z,101205.97
2023-11-18T13:50:44.033Z,101206.88
2023-11-18T13:53:13.746Z,101200.56
2023-11-18T13:55:42.432Z,101191.50
2023-11-18T13:58:11.794Z,101196.06
2023-11-18T14:00:43.234Z,101188.78
2023-11-18T14:03:13.235Z,101183.03
2023-11-18T14:05:41.255Z,101168.53
2023-11-18T14:08:11.555Z,101159.41
2023-11-18T14:10:42.043Z,101151.31
2023-11-18T14:13:13.999Z,101143.19
2023-11-18T14:15:46.029Z,101135.97
2023-11-18T14:18:15.413Z,101134.09
2023-11-18T14:20:43.469Z,101133.00
2023-11-18T14:23:12.583Z,101129.31
2023-11-18T14:25:40.471Z,101117.66
2023-11-18T14:28:09.717Z,101112.25
2023-11-18T14:30:37.865Z,101115.94
2023-11-18T14:33:08.152Z,101112.97
2023-11-18T14:35:36.518Z,101112.75
2023-11-18T14:38:04.889Z,101101.78
2023-11-18T14:40:33.657Z,101097.25
2023-11-18T14:43:01.803Z,101089.03
2023-11-18T14:45:29.917Z,101089.78
2023-11-18T14:47:57.844Z,101080.66
2023-11-18T14:50:28.610Z,101071.56
2023-11-18T14:53:01.310Z,101071.56
2023-11-18T14:55:30.395Z,101068.00
2023-11-18T14:57:58.447Z,101068.84
2023-11-18T15:00:28.564Z,101065.78
2023-11-18T15:02:59.953Z,101052.88
2023-11-18T15:05:30.289Z,101038.72
2023-11-18T15:08:00.371Z,101045.88
2023-11-18T15:10:29.532Z,101040.19
2023-11-18T15:12:59.756Z,101032.09
2023-11-18T15:15:33.663Z,101041.94
2023-11-18T15:18:06.181Z,101056.44
2023-11-18T15:20:35.736Z,101049.06
2023-11-18T15:23:03.990Z,101036.28
2023-11-18T15:25:31.873Z,101029.91
2023-11-18T15:28:00.714Z,101035.19
2023-11-18T15:30:29.229Z,101021.66
2023-11-18T15:32:59.821Z,101016.97
2023-11-18T15:35:29.661Z,101007.84
2023-11-18T15:37:58.909Z,101004.31
2023-11-18T15:40:27.365Z,100986.94
2023-11-18T15:42:58.774Z,100984.13
2023-11-18T15:45:27.732Z,100988.44
2023-11-18T15:47:55.712Z,100989.16
2023-11-18T15:50:23.626Z,100990.13
2023-11-18T15:52:53.262Z,100983.75
2023-11-18T15:55:22.883Z,100981.91
2023-11-18T15:57:53.878Z,100976.50
2023-11-18T16:00:25.639Z,100971.81
2023-11-18T16:02:58.434Z,100959.16
2023-11-18T16:05:34.602Z,100958.78
2023-11-18T16:08:03.511Z,100945.97
2023-11-18T16:10:32.760Z,100939.56
2023-11-18T16:13:01.701Z,100939.44
2023-11-18T16:15:31.232Z,100913.94
2023-11-18T16:18:00.584Z,100923.78
2023-11-18T16:20:33.311Z,100928.22
2023-11-18T16:23:04.086Z,100926.41
2023-11-18T16:25:35.974Z,100937.69
2023-11-18T16:28:05.326Z,100946.28
2023-11-18T16:30:34.031Z,100944.44
2023-11-18T16:33:04.608Z,100941.47
2023-11-18T16:35:33.072Z,100931.25
2023-11-18T16:38:02.338Z,100922.00
2023-11-18T16:40:31.135Z,100921.16
2023-11-18T16:43:01.248Z,100916.34
2023-11-18T16:45:29.907Z,100912.44
2023-11-18T16:47:57.927Z,100909.56
2023-11-18T16:50:27.843Z,100915.72
2023-11-18T16:52:56.782Z,100912.66
2023-11-18T16:55:25.200Z,100907.69
2023-11-18T16:57:54.734Z,100907.53
2023-11-18T17:00:24.990Z,100898.06
2023-11-18T17:02:56.985Z,100896.78
2023-11-18T17:05:26.987Z,100888.28
2023-11-18T17:07:55.560Z,100904.00
2023-11-18T17:10:24.488Z,100903.59
2023-11-18T17:12:52.986Z,100906.91
2023-11-18T17:15:21.332Z,100924.34
2023-11-18T17:17:54.825Z,100913.97
2023-11-18T17:20:23.132Z,100918.72
2023-11-18T17:22:52.685Z,100907.19
2023-11-18T17:25:24.439Z,100904.81
2023-11-18T17:27:54.330Z,100902.31
2023-11-18T17:30:22.549Z,100891.03
2023-11-18T17:32:53.180Z,100898.75
2023-11-18T17:35:22.257Z,100890.06
2023-11-18T17:37:50.578Z,100882.38
2023-11-18T17:40:22.541Z,100892.97
2023-11-18T17:42:54.360Z,100887.16
2023-11-18T17:45:25.406Z,100883.16
2023-11-18T17:47:55.022Z,100869.16
2023-11-18T17:50:23.788Z,100866.16
2023-11-18T17:52:52.393Z,100871.19
2023-11-18T17:55:20.464Z,100874.63
2023-11-18T17:57:48.609Z,100890.63
2023-11-18T18:00:23.402Z,100875.22
2023-11-18T18:02:52.791Z,100881.34
2023-11-18T18:05:22.311Z,100882.78
2023-11-18T18:07:50.123Z,100899.50
2023-11-18T18:10:18.480Z,100869.66
2023-11-18T18:12:48.036Z,100875.81
2023-11-18T18:15:16.297Z,100868.66
2023-11-18T18:17:44.499Z,100857.50
2023-11-18T18:20:15.029Z,100852.66
2023-11-18T18:22:44.787Z,100847.78
2023-11-18T18:25:13.523Z,100860.38
2023-11-18T18:27:42.105Z,100865.66
2023-11-18T18:30:11.439Z,100863.53
2023-11-18T18:32:39.568Z,100871.53
2023-11-18T18:35:08.374Z,100868.94
2023-11-18T18:37:36.290Z,100867.38
2023-11-18T18:40:06.183Z,100874.38
2023-11-18T18:42:34.312Z,100881.28
2023-11-18T18:45:02.306Z,100867.53
2023-11-18T18:47:30.896Z,100881.72
2023-11-18T18:49:59.331Z,100865.28
2023-11-18T18:52:27.252Z,100868.41
2023-11-18T18:54:55.344Z,100871.72
2023-11-18T18:57:25.599Z,100876.72
2023-11-18T18:59:53.446Z,100877.44
2023-11-18T19:02:21.485Z,100888.31
2023-11-18T19:04:50.179Z,100880.72
2023-11-18T19:07:19.596Z,100867.84
2023-11-18T19:09:47.612Z,100864.69
2023-11-18T19:12:15.447Z,100859.25
2023-11-18T19:14:44.697Z,100878.84
2023-11-18T19:17:14.684Z,100877.84
2023-11-18T19:19:42.689Z,100856.69
2023-11-18T19:22:10.498Z,100858.25
2023-11-18T19:24:39.681Z,100854.38
2023-11-18T19:27:12.119Z,100839.94
2023-11-18T19:29:43.065Z,100854.09
2023-11-18T19:32:13.735Z,100858.53
2023-11-18T19:34:41.573Z,100853.94
2023-11-18T19:37:12.050Z,100847.22
2023-11-18T19:39:41.475Z,100840.78
2023-11-18T19:42:10.022Z,100849.50
2023-11-18T19:44:38.187Z,100838.47
2023-11-18T19:47:08.142Z,100831.19
2023-11-18T19:49:37.687Z,100824.59
2023-11-18T19:52:08.118Z,100822.59
2023-11-18T19:54:36.320Z,100825.16
2023-11-18T19:57:05.004Z,100819.72
2023-11-18T19:59:33.953Z,100816.41
2023-11-18T20:02:02.208Z,100814.53
2023-11-18T20:04:31.309Z,100817.13
2023-11-18T20:07:00.685Z,100813.38
2023-11-18T20:09:28.660Z,100821.41
2023-11-18T20:12:04.692Z,100822.09
2023-11-18T20:14:34.297Z,100825.38
2023-11-18T20:17:02.332Z,100807.22
2023-11-18T20:19:30.416Z,100823.53
2023-11-18T20:21:58.293Z,100822.53
2023-11-18T20:24:27.520Z,100838.38
2023-11-18T20:26:55.302Z,100833.66
2023-11-18T20:29:23.126Z,100835.38
2023-11-18T20:31:51.015Z,100836.22
2023-11-18T20:34:19.257Z,100827.22
2023-11-18T20:36:47.825Z,100830.50
2023-11-18T20:39:18.791Z,100828.50
2023-11-18T20:41:49.551Z,100830.19
2023-11-18T20:44:17.866Z,100832.75
2023-11-18T20:46:46.745Z,100827.16
2023-11-18T20:49:15.085Z,100837.03
2023-11-18T20:51:42.889Z,100825.16
2023-11-18T20:54:10.708Z,100827.00
2023-11-18T20:56:38.669Z,100826.72
2023-11-18T20:59:07.889Z,100825.84
2023-11-18T21:01:35.686Z,100824.69
2023-11-18T21:04:03.764Z,100824.69
2023-11-18T21:06:32.088Z,100808.91
2023-11-18T21:09:00.554Z,100803.34
2023-11-18T21:11:28.575Z,100774.25
2023-11-18T21:13:56.792Z,100760.66
2023-11-18T21:16:26.026Z,100740.44
2023-11-18T21:18:53.836Z,100767.66
2023-11-18T21:21:22.841Z,100802.03
2023-11-18T21:23:51.123Z,100800.88
2023-11-18T21:26:21.079Z,100796.13
2023-11-18T21:28:49.289Z,100782.66
2023-11-18T21:31:18.017Z,100778.81
2023-11-18T21:33:47.195Z,100783.09
2023-11-18T21:36:15.393Z,100775.06
2023-11-18T21:38:52.743Z,100789.38
2023-11-18T21:41:20.888Z,100773.91
2023-11-18T21:43:48.689Z,100755.16
2023-11-18T21:46:16.471Z,100764.44
2023-11-18T21:48:45.220Z,100778.75
2023-11-18T21:51:14.822Z,100763.03
2023-11-18T21:53:44.248Z,100763.41
2023-11-18T21:56:12.112Z,100769.41
2023-11-18T21:58:39.918Z,100768.53
2023-11-18T22:01:07.953Z,100769.09
2023-11-18T22:03:36.206Z,100773.53
2023-11-18T22:06:04.132Z,100763.47
2023-11-18T22:08:34.769Z,100770.34
2023-11-18T22:11:02.716Z,100755.72
2023-11-18T22:13:31.907Z,100762.91
2023-11-18T22:16:00.046Z,100763.75
2023-11-18T22:18:27.922Z,100757.97
2023-11-18T22:20:56.596Z,100770.75
2023-11-18T22:23:24.412Z,100765.28
2023-11-18T22:25:53.529Z,100755.13
2023-11-18T22:28:21.307Z,100774.16
2023-11-18T22:30:49.117Z,100755.97
2023-11-18T22:33:25.311Z,100761.25
2023-11-18T22:35:55.061Z,100745.06
2023-11-18T22:38:24.114Z,100748.34
2023-11-18T22:40:53.368Z,100747.50
2023-11-18T22:43:24.944Z,100759.22
2023-11-18T22:45:52.896Z,100747.50
2023-11-18T22:48:22.179Z,100750.06
2023-11-18T22:50:50.197Z,100743.91
2023-11-18T22:53:19.066Z,100755.50
2023-11-18T22:55:48.678Z,100755.34
2023-11-18T22:58:18.103Z,100763.22
2023-11-18T23:00:52.136Z,100749.88
2023-11-18T23:03:20.658Z,100742.44
2023-11-18T23:05:49.085Z,100742.44
2023-11-18T23:08:22.986Z,100754.91
2023-11-18T23:10:52.285Z,100756.78
2023-11-18T23:13:23.976Z,100748.44
2023-11-18T23:15:56.711Z,100752.91
2023-11-18T23:18:24.761Z,100749.00
2023-11-18T23:20:52.577Z,100751.88
2023-11-18T23:23:21.360Z,100752.41
2023-11-18T23:25:49.313Z,100753.28
2023-11-18T23:28:18.085Z,100744.94
2023-11-18T23:30:47.517Z,100751.38
2023-11-18T23:33:15.350Z,100748.66
2023-11-18T23:35:44.321Z,100745.94
2023-11-18T23:38:12.089Z,100742.91
2023-11-18T23:40:42.305Z,100729.31
2023-11-18T23:43:10.136Z,100733.56
2023-11-18T23:45:37.941Z,100738.84
2023-11-18T23:48:09.768Z,100730.69
2023-11-18T23:50:38.241Z,100714.06
2023-11-18T23:53:06.036Z,100706.00
2023-11-18T23:55:33.838Z,100706.00
2023-11-18T23:58:02.029Z,100707.59
